sensor_id;sensor_type;location;lat;lon;timestamp;pressure;altitude;pressure_sealevel;temperature;humidity
81274;BME280;70753;47.908;11.274;2023-06-14T14:11:30;94399.81;;;26.74;23.43
81274;BME280;70753;47.908;11.274;2023-06-14T14:13:55;94393.91;;;26.79;23.35
81274;BME280;70753;47.908;11.274;2023-06-14T14:16:21;94399.38;;;26.93;23.28
81274;BME280;70753;47.908;11.274;2023-06-14T14:18:46;94398.94;;;27.01;22.82
81274;BME280;70753;47.908;11.274;2023-06-14T14:21:11;94395.09;;;26.81;22.72
81274;BME280;70753;47.908;11.274;2023-06-14T14:23:37;94386.47;;;26.72;22.98
81274;BME280;70753;47.908;11.274;2023-06-14T14:26:02;94395.03;;;26.99;22.88
81274;BME280;70753;47.908;11.274;2023-06-14T14:28:29;94399.38;;;26.86;23.20
81274;BME280;70753;47.908;11.274;2023-06-14T14:30:57;94390.41;;;26.60;23.17
81274;BME280;70753;47.908;11.274;2023-06-14T14:33:22;94397.78;;;26.99;22.37
81274;BME280;70753;47.908;11.274;2023-06-14T14:35:47;94397.34;;;27.07;22.57
81274;BME280;70753;47.908;11.274;2023-06-14T14:38:13;94393.44;;;27.05;22.69
81274;BME280;70753;47.908;11.274;2023-06-14T14:40:39;94410.31;;;26.79;23.28
81274;BME280;70753;47.908;11.274;2023-06-14T14:43:04;94407.19;;;26.59;23.50
81274;BME280;70753;47.908;11.274;2023-06-14T14:45:31;94402.13;;;26.75;23.07
81274;BME280;70753;47.908;11.274;2023-06-14T14:47:57;94397.41;;;26.65;23.14
81274;BME280;70753;47.908;11.274;2023-06-14T14:50:22;94402.13;;;26.82;23.04
81274;BME280;70753;47.908;11.274;2023-06-14T14:52:47;94395.47;;;26.76;23.49
81274;BME280;70753;47.908;11.274;2023-06-14T14:55:13;94400.94;;;26.83;24.26
81274;BME280;70753;47.908;11.274;2023-06-14T14:57:38;94399.75;;;26.88;23.33
81274;BME280;70753;47.908;11.274;2023-06-14T15:00:05;94402.53;;;26.77;23.48
81274;BME280;70753;47.908;11.274;2023-06-14T15:02:32;94394.69;;;26.72;23.30
81274;BME280;70753;47.908;11.274;2023-06-14T15:04:57;94396.28;;;26.52;23.60
81274;BME280;70753;47.908;11.274;2023-06-14T15:07:23;94402.94;;;26.40;23.78
81274;BME280;70753;47.908;11.274;2023-06-14T15:09:48;94404.09;;;26.39;24.23
81274;BME280;70753;47.908;11.274;2023-06-14T15:12:13;94404.50;;;26.34;24.19
81274;BME280;70753;47.908;11.274;2023-06-14T15:14:39;94403.72;;;26.27;24.17
81274;BME280;70753;47.908;11.274;2023-06-14T15:17:05;94398.22;;;26.06;24.46
81274;BME280;70753;47.908;11.274;2023-06-14T15:19:31;94403.72;;;26.16;24.70
81274;BME280;70753;47.908;11.274;2023-06-14T15:21:57;94404.47;;;26.06;25.54
81274;BME280;70753;47.908;11.274;2023-06-14T15:24:22;94413.81;;;26.05;24.87
81274;BME280;70753;47.908;11.274;2023-06-14T15:26:47;94413.81;;;25.88;25.17
81274;BME280;70753;47.908;11.274;2023-06-14T15:29:13;94413.03;;;25.87;24.35
81274;BME280;70753;47.908;11.274;2023-06-14T15:31:38;94416.94;;;25.90;23.98
81274;BME280;70753;47.908;11.274;2023-06-14T15:34:03;94414.53;;;25.56;24.30
81274;BME280;70753;47.908;11.274;2023-06-14T15:36:30;94412.22;;;25.76;24.20
81274;BME280;70753;47.908;11.274;2023-06-14T15:38:55;94409.13;;;25.88;24.22
81274;BME280;70753;47.908;11.274;2023-06-14T15:41:21;94403.66;;;25.81;24.80
81274;BME280;70753;47.908;11.274;2023-06-14T15:43:46;94405.25;;;26.03;23.71
81274;BME280;70753;47.908;11.274;2023-06-14T15:46:11;94400.59;;;26.14;23.80
81274;BME280;70753;47.908;11.274;2023-06-14T15:48:37;94403.69;;;26.37;23.85
81274;BME280;70753;47.908;11.274;2023-06-14T15:51:02;94402.16;;;26.29;23.94
81274;BME280;70753;47.908;11.274;2023-06-14T15:53:29;94410.75;;;26.28;23.63
81274;BME280;70753;47.908;11.274;2023-06-14T15:55:54;94397.47;;;26.16;23.85
81274;BME280;70753;47.908;11.274;2023-06-14T15:58:19;94407.56;;;26.01;23.82
81274;BME280;70753;47.908;11.274;2023-06-14T16:00:45;94409.19;;;26.09;23.71
81274;BME280;70753;47.908;11.274;2023-06-14T16:03:10;94401.38;;;26.18;23.61
81274;BME280;70753;47.908;11.274;2023-06-14T16:05:36;94411.50;;;26.00;24.11
81274;BME280;70753;47.908;11.274;2023-06-14T16:08:01;94408.34;;;25.95;23.57
81274;BME280;70753;47.908;11.274;2023-06-14T16:10:28;94413.84;;;25.98;24.36
81274;BME280;70753;47.908;11.274;2023-06-14T16:12:53;94407.25;;;26.13;23.82
81274;BME280;70753;47.908;11.274;2023-06-14T16:15:19;94411.84;;;25.84;23.69
81274;BME280;70753;47.908;11.274;2023-06-14T16:17:44;94419.66;;;25.86;24.20
81274;BME280;70753;47.908;11.274;2023-06-14T16:20:10;94413.81;;;25.91;23.96
81274;BME280;70753;47.908;11.274;2023-06-14T16:22:36;94423.56;;;25.85;24.43
81274;BME280;70753;47.908;11.274;2023-06-14T16:25:01;94426.66;;;25.83;24.59
81274;BME280;70753;47.908;11.274;2023-06-14T16:27:28;94429.00;;;25.81;24.46
81274;BME280;70753;47.908;11.274;2023-06-14T16:29:53;94423.94;;;25.76;23.95
81274;BME280;70753;47.908;11.274;2023-06-14T16:32:19;94427.78;;;25.54;24.53
81274;BME280;70753;47.908;11.274;2023-06-14T16:34:44;94432.47;;;25.61;23.96
81274;BME280;70753;47.908;11.274;2023-06-14T16:37:10;94432.44;;;25.47;24.12
81274;BME280;70753;47.908;11.274;2023-06-14T16:39:35;94434.00;;;25.48;24.07
81274;BME280;70753;47.908;11.274;2023-06-14T16:42:00;94431.66;;;25.50;24.78
81274;BME280;70753;47.908;11.274;2023-06-14T16:44:27;94433.25;;;25.54;25.02
81274;BME280;70753;47.908;11.274;2023-06-14T16:46:53;94436.72;;;25.44;25.84
81274;BME280;70753;47.908;11.274;2023-06-14T16:49:18;94436.97;;;25.22;25.87
81274;BME280;70753;47.908;11.274;2023-06-14T16:51:43;94444.25;;;24.93;26.06
81274;BME280;70753;47.908;11.274;2023-06-14T16:54:09;94446.31;;;25.13;26.28
81274;BME280;70753;47.908;11.274;2023-06-14T16:56:34;94446.94;;;24.89;26.62
81274;BME280;70753;47.908;11.274;2023-06-14T16:58:59;94453.63;;;24.99;26.79
81274;BME280;70753;47.908;11.274;2023-06-14T17:01:26;94454.06;;;25.04;26.51
81274;BME280;70753;47.908;11.274;2023-06-14T17:03:52;94456.06;;;25.15;26.06
81274;BME280;70753;47.908;11.274;2023-06-14T17:06:17;94455.31;;;24.60;26.40
81274;BME280;70753;47.908;11.274;2023-06-14T17:08:43;94458.63;;;24.86;26.31
81274;BME280;70753;47.908;11.274;2023-06-14T17:11:08;94458.38;;;24.55;26.23
81274;BME280;70753;47.908;11.274;2023-06-14T17:13:34;94460.63;;;24.42;26.45
81274;BME280;70753;47.908;11.274;2023-06-14T17:16:01;94468.34;;;24.33;26.45
81274;BME280;70753;47.908;11.274;2023-06-14T17:18:28;94467.00;;;24.60;26.26
81274;BME280;70753;47.908;11.274;2023-06-14T17:20:53;94460.03;;;24.70;26.41
81274;BME280;70753;47.908;11.274;2023-06-14T17:23:19;94469.59;;;24.46;26.35
81274;BME280;70753;47.908;11.274;2023-06-14T17:25:44;94483.13;;;24.32;26.90
81274;BME280;70753;47.908;11.274;2023-06-14T17:28:10;94468.44;;;24.47;27.33
81274;BME280;70753;47.908;11.274;2023-06-14T17:30:35;94482.31;;;24.28;26.76
81274;BME280;70753;47.908;11.274;2023-06-14T17:33:00;94489.78;;;24.38;26.87
81274;BME280;70753;47.908;11.274;2023-06-14T17:35:27;94483.41;;;24.20;27.17
81274;BME280;70753;47.908;11.274;2023-06-14T17:37:53;94495.22;;;24.34;27.18
81274;BME280;70753;47.908;11.274;2023-06-14T17:40:18;94497.06;;;24.23;27.44
81274;BME280;70753;47.908;11.274;2023-06-14T17:42:43;94496.81;;;24.39;27.50
81274;BME280;70753;47.908;11.274;2023-06-14T17:45:09;94503.38;;;24.34;27.69
81274;BME280;70753;47.908;11.274;2023-06-14T17:47:35;94501.41;;;23.95;27.88
81274;BME280;70753;47.908;11.274;2023-06-14T17:50:00;94497.97;;;24.01;28.14
81274;BME280;70753;47.908;11.274;2023-06-14T17:52:27;94505.94;;;24.17;27.95
81274;BME280;70753;47.908;11.274;2023-06-14T17:54:53;94513.44;;;24.27;28.24
81274;BME280;70753;47.908;11.274;2023-06-14T17:57:18;94510.59;;;24.16;27.86
81274;BME280;70753;47.908;11.274;2023-06-14T18:01:48;94514.38;;;23.72;28.60
81274;BME280;70753;47.908;11.274;2023-06-14T18:04:17;94514.19;;;23.91;28.43
81274;BME280;70753;47.908;11.274;2023-06-14T18:06:42;94518.44;;;23.88;28.53
81274;BME280;70753;47.908;11.274;2023-06-14T18:11:33;94523.38;;;23.76;28.91
81274;BME280;70753;47.908;11.274;2023-06-14T18:13:59;94530.03;;;23.82;28.83
81274;BME280;70753;47.908;11.274;2023-06-14T18:16:24;94529.50;;;23.66;29.65
81274;BME280;70753;47.908;11.274;2023-06-14T18:18:50;94531.53;;;23.76;29.57
81274;BME280;70753;47.908;11.274;2023-06-14T18:21:15;94533.91;;;23.77;29.53
81274;BME280;70753;47.908;11.274;2023-06-14T18:23:41;94528.09;;;23.79;29.81
81274;BME280;70753;47.908;11.274;2023-06-14T18:26:06;94532.13;;;23.58;30.74
81274;BME280;70753;47.908;11.274;2023-06-14T18:28:33;94536.41;;;23.59;30.39
81274;BME280;70753;47.908;11.274;2023-06-14T18:30:58;94549.47;;;23.77;30.81
81274;BME280;70753;47.908;11.274;2023-06-14T18:33:24;94545.16;;;23.76;30.63
81274;BME280;70753;47.908;11.274;2023-06-14T18:35:49;94548.28;;;23.78;30.62
81274;BME280;70753;47.908;11.274;2023-06-14T18:39:06;94544.91;;;23.54;31.03
81274;BME280;70753;47.908;11.274;2023-06-14T18:41:33;94553.16;;;23.61;30.99
81274;BME280;70753;47.908;11.274;2023-06-14T18:43:58;94552.09;;;23.70;31.00
81274;BME280;70753;47.908;11.274;2023-06-14T18:46:24;94554.81;;;23.70;31.24
81274;BME280;70753;47.908;11.274;2023-06-14T18:48:49;94551.50;;;23.53;31.29
81274;BME280;70753;47.908;11.274;2023-06-14T18:51:14;94557.50;;;23.36;31.82
81274;BME280;70753;47.908;11.274;2023-06-14T18:53:40;94561.47;;;23.42;31.91
81274;BME280;70753;47.908;11.274;2023-06-14T18:56:07;94562.50;;;23.34;31.80
81274;BME280;70753;47.908;11.274;2023-06-14T18:58:32;94563.78;;;23.40;31.76
81274;BME280;70753;47.908;11.274;2023-06-14T19:00:58;94572.78;;;23.22;31.96
81274;BME280;70753;47.908;11.274;2023-06-14T19:03:23;94573.16;;;23.20;32.42
81274;BME280;70753;47.908;11.274;2023-06-14T19:05:51;94570.72;;;23.38;32.07
81274;BME280;70753;47.908;11.274;2023-06-14T19:08:17;94575.38;;;23.37;32.38
81274;BME280;70753;47.908;11.274;2023-06-14T19:10:42;94577.47;;;23.21;32.84
81274;BME280;70753;47.908;11.274;2023-06-14T19:13:09;94578.31;;;23.25;32.65
81274;BME280;70753;47.908;11.274;2023-06-14T19:15:34;94592.16;;;23.17;33.40
81274;BME280;70753;47.908;11.274;2023-06-14T19:18:00;94587.50;;;23.17;33.01
81274;BME280;70753;47.908;11.274;2023-06-14T19:20:26;94593.53;;;23.04;33.54
81274;BME280;70753;47.908;11.274;2023-06-14T19:22:52;94588.91;;;23.08;33.71
81274;BME280;70753;47.908;11.274;2023-06-14T19:25:18;94596.50;;;22.95;33.34
81274;BME280;70753;47.908;11.274;2023-06-14T19:27:45;94593.88;;;22.76;33.77
81274;BME280;70753;47.908;11.274;2023-06-14T19:30:14;94601.09;;;22.91;34.11
81274;BME280;70753;47.908;11.274;2023-06-14T19:32:41;94603.41;;;22.89;33.71
81274;BME280;70753;47.908;11.274;2023-06-14T19:35:08;94608.75;;;22.85;33.98
81274;BME280;70753;47.908;11.274;2023-06-14T19:37:33;94615.81;;;22.90;34.07
81274;BME280;70753;47.908;11.274;2023-06-14T19:39:59;94615.94;;;22.74;34.00
81274;BME280;70753;47.908;11.274;2023-06-14T19:42:24;94618.78;;;22.81;34.14
81274;BME280;70753;47.908;11.274;2023-06-14T19:44:50;94623.66;;;22.50;34.13
81274;BME280;70753;47.908;11.274;2023-06-14T19:47:16;94624.72;;;22.23;34.58
81274;BME280;70753;47.908;11.274;2023-06-14T19:49:42;94621.03;;;21.92;35.08
81274;BME280;70753;47.908;11.274;2023-06-14T19:52:08;94629.28;;;22.19;34.89
81274;BME280;70753;47.908;11.274;2023-06-14T19:54:33;94634.69;;;22.38;34.50
81274;BME280;70753;47.908;11.274;2023-06-14T19:56:59;94637.28;;;22.31;34.65
81274;BME280;70753;47.908;11.274;2023-06-14T19:59:24;94637.44;;;21.99;35.20
81274;BME280;70753;47.908;11.274;2023-06-14T20:01:49;94635.63;;;22.26;34.71
81274;BME280;70753;47.908;11.274;2023-06-14T20:04:16;94637.28;;;22.31;34.74
81274;BME280;70753;47.908;11.274;2023-06-14T20:06:42;94640.34;;;22.29;34.87
81274;BME280;70753;47.908;11.274;2023-06-14T20:09:07;94640.00;;;22.31;34.69
81274;BME280;70753;47.908;11.274;2023-06-14T20:11:32;94642.56;;;22.24;34.52
81274;BME280;70753;47.908;11.274;2023-06-14T20:13:58;94637.13;;;22.24;34.48
81274;BME280;70753;47.908;11.274;2023-06-14T20:16:23;94640.06;;;22.34;34.26
81274;BME280;70753;47.908;11.274;2023-06-14T20:18:49;94639.63;;;22.32;34.19
81274;BME280;70753;47.908;11.274;2023-06-14T20:21:16;94638.63;;;22.21;34.65
81274;BME280;70753;47.908;11.274;2023-06-14T20:23:41;94642.72;;;22.31;34.35
81274;BME280;70753;47.908;11.274;2023-06-14T20:26:06;94647.78;;;22.13;34.65
81274;BME280;70753;47.908;11.274;2023-06-14T20:28:32;94645.09;;;22.13;34.49
81274;BME280;70753;47.908;11.274;2023-06-14T20:30:57;94648.28;;;22.19;34.46
81274;BME280;70753;47.908;11.274;2023-06-14T20:33:23;94643.22;;;22.17;34.28
81274;BME280;70753;47.908;11.274;2023-06-14T20:35:48;94643.44;;;22.08;34.49
81274;BME280;70753;47.908;11.274;2023-06-14T20:38:15;94643.41;;;21.70;34.86
81274;BME280;70753;47.908;11.274;2023-06-14T20:40:40;94642.16;;;21.83;34.70
81274;BME280;70753;47.908;11.274;2023-06-14T20:43:06;94643.16;;;21.94;34.51
81274;BME280;70753;47.908;11.274;2023-06-14T20:45:31;94656.09;;;22.01;34.72
81274;BME280;70753;47.908;11.274;2023-06-14T20:47:57;94649.44;;;21.98;34.79
81274;BME280;70753;47.908;11.274;2023-06-14T20:50:22;94655.00;;;22.05;34.73
81274;BME280;70753;47.908;11.274;2023-06-14T20:52:48;94654.31;;;21.89;35.00
81274;BME280;70753;47.908;11.274;2023-06-14T20:55:15;94654.31;;;21.89;35.21
81274;BME280;70753;47.908;11.274;2023-06-14T20:57:40;94657.19;;;21.81;35.46
81274;BME280;70753;47.908;11.274;2023-06-14T21:00:07;94655.00;;;21.86;35.16
81274;BME280;70753;47.908;11.274;2023-06-14T21:02:33;94648.00;;;21.85;35.25
81274;BME280;70753;47.908;11.274;2023-06-14T21:04:58;94646.09;;;21.86;35.07
81274;BME280;70753;47.908;11.274;2023-06-14T21:07:24;94651.53;;;21.70;35.70
81274;BME280;70753;47.908;11.274;2023-06-14T21:09:49;94659.41;;;21.75;35.39
81274;BME280;70753;47.908;11.274;2023-06-14T21:12:16;94653.72;;;21.65;35.73
81274;BME280;70753;47.908;11.274;2023-06-14T21:14:42;94658.72;;;21.63;35.86
81274;BME280;70753;47.908;11.274;2023-06-14T21:17:07;94650.78;;;21.54;36.07
81274;BME280;70753;47.908;11.274;2023-06-14T21:19:32;94653.66;;;21.61;36.10
81274;BME280;70753;47.908;11.274;2023-06-14T21:21:58;94658.47;;;21.68;35.96
81274;BME280;70753;47.908;11.274;2023-06-14T21:24:23;94660.13;;;21.72;36.15
81274;BME280;70753;47.908;11.274;2023-06-14T21:26:49;94650.47;;;21.56;36.09
81274;BME280;70753;47.908;11.274;2023-06-14T21:29:15;94657.16;;;21.62;36.23
81274;BME280;70753;47.908;11.274;2023-06-14T21:31:41;94657.09;;;21.58;36.32
81274;BME280;70753;47.908;11.274;2023-06-14T21:34:06;94652.53;;;21.62;36.47
81274;BME280;70753;47.908;11.274;2023-06-14T21:36:32;94656.31;;;21.58;36.56
81274;BME280;70753;47.908;11.274;2023-06-14T21:38:57;94658.94;;;21.54;36.72
81274;BME280;70753;47.908;11.274;2023-06-14T21:41:23;94658.78;;;21.47;36.93
81274;BME280;70753;47.908;11.274;2023-06-14T21:43:49;94659.28;;;21.53;36.87
81274;BME280;70753;47.908;11.274;2023-06-14T21:46:18;94656.22;;;21.54;36.98
81274;BME280;70753;47.908;11.274;2023-06-14T21:48:43;94661.22;;;21.52;37.15
81274;BME280;70753;47.908;11.274;2023-06-14T21:51:08;94654.56;;;21.50;37.20
81274;BME280;70753;47.908;11.274;2023-06-14T21:53:34;94655.34;;;21.50;37.06
81274;BME280;70753;47.908;11.274;2023-06-14T21:55:59;94646.63;;;21.41;37.24
81274;BME280;70753;47.908;11.274;2023-06-14T21:58:24;94658.81;;;21.31;37.72
81274;BME280;70753;47.908;11.274;2023-06-14T22:00:52;94659.88;;;21.27;37.96
81274;BME280;70753;47.908;11.274;2023-06-14T22:03:19;94661.59;;;21.35;37.68
81274;BME280;70753;47.908;11.274;2023-06-14T22:05:44;94660.75;;;21.31;37.40
81274;BME280;70753;47.908;11.274;2023-06-14T22:08:10;94661.28;;;21.21;37.70
81274;BME280;70753;47.908;11.274;2023-06-14T22:10:35;94667.56;;;21.25;37.96
81274;BME280;70753;47.908;11.274;2023-06-14T22:13:01;94659.28;;;21.18;38.41
81274;BME280;70753;47.908;11.274;2023-06-14T22:15:27;94663.56;;;21.19;38.61
81274;BME280;70753;47.908;11.274;2023-06-14T22:17:52;94666.09;;;21.12;38.41
81274;BME280;70753;47.908;11.274;2023-06-14T22:20:19;94667.16;;;21.07;38.49
81274;BME280;70753;47.908;11.274;2023-06-14T22:22:44;94666.34;;;21.07;38.53
81274;BME280;70753;47.908;11.274;2023-06-14T22:25:10;94665.94;;;21.05;38.85
81274;BME280;70753;47.908;11.274;2023-06-14T22:27:35;94666.19;;;21.00;39.02
81274;BME280;70753;47.908;11.274;2023-06-14T22:30:02;94660.69;;;20.81;39.59
81274;BME280;70753;47.908;11.274;2023-06-14T22:32:28;94660.50;;;20.74;39.72
81274;BME280;70753;47.908;11.274;2023-06-14T22:34:54;94655.50;;;20.76;39.86
81274;BME280;70753;47.908;11.274;2023-06-14T22:37:20;94660.13;;;20.59;40.19
81274;BME280;70753;47.908;11.274;2023-06-14T22:39:46;94662.13;;;20.62;40.06
81274;BME280;70753;47.908;11.274;2023-06-14T22:42:11;94662.56;;;20.64;39.99
81274;BME280;70753;47.908;11.274;2023-06-14T22:44:37;94657.41;;;20.59;40.12
81274;BME280;70753;47.908;11.274;2023-06-14T22:47:02;94662.19;;;20.35;40.70
81274;BME280;70753;47.908;11.274;2023-06-14T22:49:28;94661.22;;;20.43;40.76
81274;BME280;70753;47.908;11.274;2023-06-14T22:51:53;94658.09;;;20.41;40.70
81274;BME280;70753;47.908;11.274;2023-06-14T22:54:21;94659.47;;;20.35;40.86
81274;BME280;70753;47.908;11.274;2023-06-14T22:56:46;94655.19;;;20.34;40.59
81274;BME280;70753;47.908;11.274;2023-06-14T22:59:11;94658.25;;;20.32;40.86
81274;BME280;70753;47.908;11.274;2023-06-14T23:01:37;94652.69;;;20.13;41.25
81274;BME280;70753;47.908;11.274;2023-06-14T23:04:03;94654.25;;;20.14;41.15
81274;BME280;70753;47.908;11.274;2023-06-14T23:06:29;94649.97;;;20.13;41.31
81274;BME280;70753;47.908;11.274;2023-06-14T23:08:54;94655.19;;;20.06;41.69
81274;BME280;70753;47.908;11.274;2023-06-14T23:11:22;94645.50;;;20.05;41.39
81274;BME280;70753;47.908;11.274;2023-06-14T23:13:48;94639.66;;;20.03;41.83
81274;BME280;70753;47.908;11.274;2023-06-14T23:16:14;94638.41;;;20.01;41.60
81274;BME280;70753;47.908;11.274;2023-06-14T23:18:40;94636.97;;;19.91;41.83
81274;BME280;70753;47.908;11.274;2023-06-14T23:21:06;94636.09;;;19.87;42.01
81274;BME280;70753;47.908;11.274;2023-06-14T23:23:31;94634.56;;;19.74;42.28
81274;BME280;70753;47.908;11.274;2023-06-14T23:25:57;94635.50;;;19.66;42.57
81274;BME280;70753;47.908;11.274;2023-06-14T23:28:24;94635.78;;;19.25;42.76
81274;BME280;70753;47.908;11.274;2023-06-14T23:30:50;94648.63;;;19.52;42.41
81274;BME280;70753;47.908;11.274;2023-06-14T23:33:16;94643.66;;;19.42;42.57
81274;BME280;70753;47.908;11.274;2023-06-14T23:35:41;94640.94;;;19.42;42.22
81274;BME280;70753;47.908;11.274;2023-06-14T23:38:08;94643.22;;;19.40;42.68
81274;BME280;70753;47.908;11.274;2023-06-14T23:40:34;94640.19;;;19.41;42.41
81274;BME280;70753;47.908;11.274;2023-06-14T23:42:59;94641.06;;;19.45;42.34
81274;BME280;70753;47.908;11.274;2023-06-14T23:45:26;94642.88;;;19.41;42.45
81274;BME280;70753;47.908;11.274;2023-06-14T23:47:51;94640.50;;;19.40;42.43
81274;BME280;70753;47.908;11.274;2023-06-14T23:50:17;94633.19;;;19.40;42.43
81274;BME280;70753;47.908;11.274;2023-06-14T23:52:42;94639.13;;;19.34;42.50
81274;BME280;70753;47.908;11.274;2023-06-14T23:55:08;94645.03;;;19.24;42.80
81274;BME280;70753;47.908;11.274;2023-06-14T23:57:34;94640.28;;;19.33;42.47
81274;BME280;70753;47.908;11.274;2023-06-14T23:59:59;94637.59;;;19.08;42.94
